Time,TemperatureF,DewpointF,PressureIn,WindDirection,WindDirectionDegrees,WindSpeedMPH,WindSpeedGustMPH,Humidity,HourlyPrecipIn,Conditions,Clouds,dailyrainin,SoftwareType,DateUTC
2013-06-22 00:01:00,76.1,74.5,30.14,NW,315,2.0,2.0,95,0.00,,,0.67,meteohub,2013-06-22 04:01:00,
2013-06-22 00:02:00,76.1,74.5,30.14,NW,315,1.0,2.0,95,0.00,,,0.67,meteohub,2013-06-22 04:02:00,
2013-06-22 00:07:00,76.3,74.7,30.14,NE,45,2.0,2.0,95,0.00,,,0.00,meteohub,2013-06-22 04:07:00,
2013-06-22 00:13:00,76.5,74.8,30.14,East,90,1.0,2.0,95,0.00,,,0.00,meteohub,2013-06-22 04:13:00,
2013-06-22 00:18:00,76.6,75.0,30.14,North,0,2.0,2.0,95,0.00,,,0.00,meteohub,2013-06-22 04:18:00,
2013-06-22 00:23:00,76.6,75.0,30.13,West,270,0.0,2.0,95,0.00,,,0.00,meteohub,2013-06-22 04:23:00,
2013-06-22 00:28:00,76.6,75.0,30.14,North,0,2.0,2.0,95,0.00,,,0.00,meteohub,2013-06-22 04:28:00,
2013-06-22 00:33:00,76.6,74.8,30.13,WNW,293,3.0,4.0,94,0.00,,,0.00,meteohub,2013-06-22 04:33:00,
2013-06-22 00:39:00,76.6,75.0,30.13,NW,315,0.0,4.0,95,0.00,,,0.00,meteohub,2013-06-22 04:39:00,
2013-06-22 00:44:00,76.5,74.8,30.13,NW,315,2.0,4.0,95,0.00,,,0.00,meteohub,2013-06-22 04:44:00,
2013-06-22 00:49:00,76.5,74.8,30.13,West,270,2.0,3.0,95,0.00,,,0.00,meteohub,2013-06-22 04:49:00,
2013-06-22 00:54:00,76.3,74.7,30.13,WNW,293,0.0,2.0,95,0.00,,,0.00,meteohub,2013-06-22 04:54:00,
2013-06-22 01:00:00,76.3,74.7,30.12,WNW,293,2.0,2.0,95,0.00,,,0.00,meteohub,2013-06-22 05:00:00,
2013-06-22 01:05:00,76.1,74.8,30.12,West,270,1.0,2.0,96,0.00,,,0.00,meteohub,2013-06-22 05:05:00,
2013-06-22 01:10:00,75.9,74.7,30.11,West,270,1.0,5.0,96,0.00,,,0.00,meteohub,2013-06-22 05:10:00,
2013-06-22 01:15:00,75.7,74.5,30.12,NW,315,2.0,5.0,96,0.00,,,0.00,meteohub,2013-06-22 05:15:00,
2013-06-22 01:20:00,75.6,74.3,30.11,West,270,2.0,2.0,96,0.00,,,0.00,meteohub,2013-06-22 05:20:00,
2013-06-22 01:26:00,75.4,74.1,30.11,NW,315,1.0,2.0,96,0.00,,,0.00,meteohub,2013-06-22 05:26:00,
2013-06-22 01:31:00,75.4,74.5,30.11,NW,315,0.0,3.0,97,0.00,,,0.00,meteohub,2013-06-22 05:31:00,
2013-06-22 01:36:00,75.2,74.3,30.10,NW,315,0.0,3.0,97,0.00,,,0.00,meteohub,2013-06-22 05:36:00,
2013-06-22 01:41:00,74.8,74.3,30.10,West,270,0.0,3.0,98,0.00,,,0.00,meteohub,2013-06-22 05:41:00,
2013-06-22 01:46:00,74.7,74.1,30.10,West,270,0.0,2.0,98,0.00,,,0.00,meteohub,2013-06-22 05:46:00,
2013-06-22 01:51:00,74.7,74.3,30.10,West,270,1.0,2.0,99,0.00,,,0.00,meteohub,2013-06-22 05:51:00,
2013-06-22 01:57:00,74.7,74.3,30.10,NW,315,2.0,2.0,99,0.00,,,0.00,meteohub,2013-06-22 05:57:00,
2013-06-22 02:02:00,74.7,74.3,30.10,NW,315,1.0,2.0,99,0.00,,,0.00,meteohub,2013-06-22 06:02:00,
2013-06-22 02:07:00,74.8,74.5,30.09,NW,315,1.0,2.0,99,0.00,,,0.00,meteohub,2013-06-22 06:07:00,
2013-06-22 02:12:00,74.8,74.5,30.09,West,270,2.0,2.0,99,0.00,,,0.00,meteohub,2013-06-22 06:12:00,
2013-06-22 02:17:00,74.8,74.5,30.09,West,270,0.0,2.0,99,0.00,,,0.00,meteohub,2013-06-22 06:17:00,
2013-06-22 02:22:00,74.7,74.3,30.09,WNW,293,2.0,2.0,99,0.00,,,0.00,meteohub,2013-06-22 06:22:00,
2013-06-22 02:28:00,74.8,74.5,30.09,West,270,0.0,2.0,99,0.00,,,0.00,meteohub,2013-06-22 06:28:00,
2013-06-22 02:33:00,74.7,74.3,30.09,North,0,2.0,2.0,99,0.00,,,0.00,meteohub,2013-06-22 06:33:00,
2013-06-22 02:38:00,74.7,74.3,30.09,NW,315,1.0,2.0,99,0.00,,,0.00,meteohub,2013-06-22 06:38:00,
2013-06-22 02:43:00,74.7,74.3,30.09,NW,315,2.0,2.0,99,0.00,,,0.00,meteohub,2013-06-22 06:43:00,
2013-06-22 02:48:00,74.7,74.3,30.09,NW,315,0.0,2.0,99,0.00,,,0.00,meteohub,2013-06-22 06:48:00,
2013-06-22 02:53:00,74.7,74.3,30.09,NW,315,2.0,2.0,99,0.00,,,0.00,meteohub,2013-06-22 06:53:00,
2013-06-22 02:59:00,74.5,74.1,30.09,NE,45,2.0,2.0,99,0.00,,,0.00,meteohub,2013-06-22 06:59:00,
2013-06-22 03:04:00,74.7,74.3,30.09,West,270,0.0,2.0,99,0.00,,,0.00,meteohub,2013-06-22 07:04:00,
2013-06-22 03:09:00,74.5,74.1,30.09,West,270,0.0,2.0,99,0.00,,,0.00,meteohub,2013-06-22 07:09:00,
2013-06-22 03:14:00,74.5,74.1,30.09,North,0,0.0,2.0,99,0.00,,,0.00,meteohub,2013-06-22 07:14:00,
2013-06-22 03:20:00,74.5,74.1,30.09,West,270,0.0,2.0,99,0.00,,,0.00,meteohub,2013-06-22 07:20:00,
2013-06-22 03:25:00,74.5,74.1,30.09,NW,315,1.0,2.0,99,0.00,,,0.00,meteohub,2013-06-22 07:25:00,
2013-06-22 03:30:00,74.5,74.1,30.08,North,0,2.0,3.0,99,0.00,,,0.00,meteohub,2013-06-22 07:30:00,
2013-06-22 03:35:00,74.5,74.1,30.08,West,270,0.0,3.0,99,0.00,,,0.00,meteohub,2013-06-22 07:35:00,
2013-06-22 03:40:00,74.5,74.1,30.08,North,0,3.0,3.0,99,0.00,,,0.00,meteohub,2013-06-22 07:40:00,
2013-06-22 03:46:00,74.5,74.1,30.08,North,0,1.0,3.0,99,0.00,,,0.00,meteohub,2013-06-22 07:46:00,
2013-06-22 03:51:00,74.5,74.1,30.08,NW,315,1.0,3.0,99,0.00,,,0.00,meteohub,2013-06-22 07:51:00,
2013-06-22 03:56:00,74.3,73.9,30.08,ENE,68,0.0,3.0,99,0.00,,,0.00,meteohub,2013-06-22 07:56:00,
2013-06-22 04:01:00,74.3,73.9,30.08,North,0,0.0,2.0,99,0.00,,,0.00,meteohub,2013-06-22 08:01:00,
2013-06-22 04:06:00,74.3,73.9,30.08,North,0,0.0,1.0,99,0.00,,,0.00,meteohub,2013-06-22 08:06:00,
2013-06-22 04:11:00,73.8,73.4,30.08,North,0,1.0,1.0,99,0.00,,,0.00,meteohub,2013-06-22 08:11:00,
2013-06-22 04:17:00,73.8,73.4,30.08,NW,315,0.0,1.0,99,0.00,,,0.00,meteohub,2013-06-22 08:17:00,
2013-06-22 04:22:00,73.8,73.4,30.08,NW,315,0.0,3.0,99,0.00,,,0.00,meteohub,2013-06-22 08:22:00,
2013-06-22 04:27:00,73.8,73.4,30.08,NE,45,0.0,3.0,99,0.00,,,0.00,meteohub,2013-06-22 08:27:00,
2013-06-22 04:32:00,73.9,73.6,30.08,North,0,0.0,3.0,99,0.00,,,0.00,meteohub,2013-06-22 08:32:00,
2013-06-22 04:37:00,74.1,73.8,30.08,East,90,0.0,2.0,99,0.00,,,0.00,meteohub,2013-06-22 08:37:00,
2013-06-22 04:42:00,73.9,73.6,30.08,East,90,0.0,2.0,99,0.00,,,0.00,meteohub,2013-06-22 08:42:00,
2013-06-22 04:47:00,73.8,73.4,30.08,West,270,0.0,0.0,99,0.00,,,0.00,meteohub,2013-06-22 08:47:00,
2013-06-22 04:52:00,73.6,73.2,30.08,West,270,0.0,0.0,99,0.00,,,0.00,meteohub,2013-06-22 08:52:00,
2013-06-22 04:57:00,73.4,73.0,30.08,West,270,0.0,0.0,99,0.00,,,0.00,meteohub,2013-06-22 08:57:00,
2013-06-22 05:02:00,73.2,72.3,30.08,West,270,0.0,0.0,97,0.00,,,0.00,meteohub,2013-06-22 09:02:00,
2013-06-22 05:07:00,73.2,72.3,30.08,West,270,0.0,0.0,97,0.00,,,0.00,meteohub,2013-06-22 09:07:00,
2013-06-22 05:12:00,73.0,72.1,30.08,West,270,0.0,0.0,97,0.00,,,0.00,meteohub,2013-06-22 09:12:00,
2013-06-22 05:17:00,73.2,72.3,30.08,West,270,0.0,0.0,97,0.00,,,0.00,meteohub,2013-06-22 09:17:00,
2013-06-22 05:22:00,73.2,72.3,30.08,West,270,0.0,0.0,97,0.00,,,0.00,meteohub,2013-06-22 09:22:00,
2013-06-22 05:27:00,73.2,72.3,30.09,West,270,0.0,0.0,97,0.00,,,0.00,meteohub,2013-06-22 09:27:00,
2013-06-22 05:32:00,73.0,72.1,30.08,West,270,0.0,0.0,97,0.00,,,0.00,meteohub,2013-06-22 09:32:00,
2013-06-22 05:37:00,73.0,72.1,30.09,West,270,0.0,0.0,97,0.00,,,0.00,meteohub,2013-06-22 09:37:00,
2013-06-22 05:42:00,73.0,72.1,30.09,West,270,0.0,0.0,97,0.00,,,0.00,meteohub,2013-06-22 09:42:00,
2013-06-22 05:47:00,72.9,72.0,30.09,West,270,0.0,0.0,97,0.00,,,0.00,meteohub,2013-06-22 09:47:00,
2013-06-22 05:53:00,72.7,71.8,30.09,West,270,0.0,0.0,97,0.00,,,0.00,meteohub,2013-06-22 09:53:00,
2013-06-22 05:58:00,72.7,71.8,30.09,West,270,0.0,0.0,97,0.00,,,0.00,meteohub,2013-06-22 09:58:00,
2013-06-22 06:03:00,72.7,71.8,30.09,West,270,0.0,0.0,97,0.00,,,0.00,meteohub,2013-06-22 10:03:00,
2013-06-22 06:08:00,72.5,71.6,30.10,West,270,0.0,0.0,97,0.00,,,0.00,meteohub,2013-06-22 10:08:00,
2013-06-22 06:13:00,72.3,71.4,30.10,West,270,0.0,0.0,97,0.00,,,0.00,meteohub,2013-06-22 10:13:00,
2013-06-22 06:19:00,72.1,71.2,30.10,West,270,0.0,0.0,97,0.00,,,0.00,meteohub,2013-06-22 10:19:00,
2013-06-22 06:24:00,72.1,71.2,30.10,West,270,0.0,0.0,97,0.00,,,0.00,meteohub,2013-06-22 10:24:00,
2013-06-22 06:29:00,72.1,71.2,30.10,West,270,0.0,0.0,97,0.00,,,0.00,meteohub,2013-06-22 10:29:00,
2013-06-22 06:34:00,72.1,71.2,30.10,West,270,0.0,0.0,97,0.00,,,0.00,meteohub,2013-06-22 10:34:00,
2013-06-22 06:39:00,72.1,71.2,30.11,West,270,0.0,0.0,97,0.00,,,0.00,meteohub,2013-06-22 10:39:00,
2013-06-22 06:44:00,72.3,71.4,30.11,West,270,0.0,0.0,97,0.00,,,0.00,meteohub,2013-06-22 10:44:00,
2013-06-22 06:49:00,72.3,71.4,30.11,West,270,0.0,0.0,97,0.00,,,0.00,meteohub,2013-06-22 10:49:00,
2013-06-22 06:55:00,72.3,71.4,30.10,West,270,0.0,0.0,97,0.00,,,0.00,meteohub,2013-06-22 10:55:00,
2013-06-22 07:00:00,72.5,71.6,30.11,West,270,0.0,0.0,97,0.00,,,0.00,meteohub,2013-06-22 11:00:00,
2013-06-22 07:05:00,72.7,71.8,30.10,West,270,0.0,0.0,97,0.00,,,0.00,meteohub,2013-06-22 11:05:00,
2013-06-22 07:10:00,72.9,72.0,30.11,West,270,0.0,0.0,97,0.00,,,0.00,meteohub,2013-06-22 11:10:00,
2013-06-22 07:15:00,73.0,72.1,30.11,West,270,0.0,0.0,97,0.00,,,0.00,meteohub,2013-06-22 11:15:00,
2013-06-22 07:20:00,73.4,73.0,30.11,West,270,0.0,0.0,99,0.00,,,0.00,meteohub,2013-06-22 11:20:00,
2013-06-22 07:25:00,73.8,73.4,30.11,West,270,0.0,0.0,99,0.00,,,0.00,meteohub,2013-06-22 11:25:00,
2013-06-22 07:31:00,74.1,73.8,30.11,West,270,0.0,0.0,99,0.00,,,0.00,meteohub,2013-06-22 11:31:00,
2013-06-22 07:36:00,74.7,74.3,30.11,NW,315,2.0,2.0,99,0.00,,,0.00,meteohub,2013-06-22 11:36:00,
2013-06-22 07:41:00,75.0,74.7,30.11,North,0,3.0,3.0,99,0.00,,,0.00,meteohub,2013-06-22 11:41:00,
2013-06-22 07:46:00,75.6,75.2,30.11,North,0,2.0,3.0,99,0.00,,,0.00,meteohub,2013-06-22 11:46:00,
2013-06-22 07:51:00,75.9,75.6,30.11,North,0,2.0,3.0,99,0.00,,,0.00,meteohub,2013-06-22 11:51:00,
2013-06-22 07:56:00,76.5,76.1,30.11,NE,45,0.0,3.0,99,0.00,,,0.00,meteohub,2013-06-22 11:56:00,
2013-06-22 08:02:00,76.8,76.5,30.11,NW,315,2.0,2.0,99,0.00,,,0.00,meteohub,2013-06-22 12:02:00,
2013-06-22 08:07:00,77.4,77.0,30.11,North,0,2.0,2.0,99,0.00,,,0.00,meteohub,2013-06-22 12:07:00,
2013-06-22 08:12:00,77.9,77.5,30.12,North,0,2.0,2.0,99,0.00,,,0.00,meteohub,2013-06-22 12:12:00,
2013-06-22 08:17:00,78.3,77.9,30.11,North,0,0.0,2.0,99,0.00,,,0.00,meteohub,2013-06-22 12:17:00,
2013-06-22 08:22:00,79.0,78.1,30.12,North,0,1.0,2.0,97,0.00,,,0.00,meteohub,2013-06-22 12:22:00,
2013-06-22 08:27:00,79.5,77.9,30.12,West,270,1.0,3.0,95,0.00,,,0.00,meteohub,2013-06-22 12:27:00,
2013-06-22 08:32:00,80.1,77.5,30.12,West,270,2.0,3.0,92,0.00,,,0.00,meteohub,2013-06-22 12:32:00,
2013-06-22 08:37:00,81.1,77.2,30.12,North,0,2.0,3.0,88,0.00,,,0.00,meteohub,2013-06-22 12:37:00,
2013-06-22 08:42:00,82.0,77.4,30.12,North,0,4.0,4.0,86,0.00,,,0.00,meteohub,2013-06-22 12:42:00,
2013-06-22 08:47:00,82.8,77.7,30.12,NW,315,2.0,4.0,85,0.00,,,0.00,meteohub,2013-06-22 12:47:00,
2013-06-22 08:52:00,83.3,77.9,30.13,North,0,4.0,4.0,84,0.00,,,0.00,meteohub,2013-06-22 12:52:00,
2013-06-22 08:57:00,83.8,78.4,30.13,NW,315,3.0,4.0,84,0.00,,,0.00,meteohub,2013-06-22 12:57:00,
2013-06-22 09:02:00,84.7,77.9,30.13,West,270,2.0,4.0,80,0.00,,,0.00,meteohub,2013-06-22 13:02:00,
2013-06-22 09:07:00,85.5,78.3,30.13,SW,225,3.0,4.0,79,0.00,,,0.00,meteohub,2013-06-22 13:07:00,
2013-06-22 09:12:00,85.6,77.5,30.13,NNE,23,5.0,5.0,77,0.00,,,0.00,meteohub,2013-06-22 13:12:00,
2013-06-22 09:17:00,86.2,77.4,30.13,NW,315,1.0,5.0,75,0.00,,,0.00,meteohub,2013-06-22 13:17:00,
2013-06-22 09:22:00,86.9,78.1,30.13,North,0,1.0,5.0,75,0.00,,,0.00,meteohub,2013-06-22 13:22:00,
2013-06-22 09:27:00,87.1,77.4,30.13,WSW,248,4.0,5.0,73,0.00,,,0.00,meteohub,2013-06-22 13:27:00,
2013-06-22 09:32:00,87.3,77.9,30.13,ESE,113,4.0,4.0,74,0.00,,,0.00,meteohub,2013-06-22 13:32:00,
2013-06-22 09:37:00,87.3,77.2,30.13,NW,315,4.0,4.0,72,0.00,,,0.00,meteohub,2013-06-22 13:37:00,
2013-06-22 09:42:00,87.6,77.9,30.13,NW,315,2.0,4.0,73,0.00,,,0.00,meteohub,2013-06-22 13:42:00,
2013-06-22 09:47:00,88.5,76.6,30.13,NE,45,3.0,4.0,68,0.00,,,0.00,meteohub,2013-06-22 13:47:00,
2013-06-22 09:52:00,88.3,76.8,30.13,NNE,23,5.0,5.0,69,0.00,,,0.00,meteohub,2013-06-22 13:52:00,
2013-06-22 09:57:00,88.5,76.1,30.13,East,90,3.0,5.0,67,0.00,,,0.00,meteohub,2013-06-22 13:57:00,
2013-06-22 10:02:00,89.1,76.3,30.13,WNW,293,3.0,5.0,66,0.00,,,0.00,meteohub,2013-06-22 14:02:00,
2013-06-22 10:07:00,89.8,75.6,30.13,NE,45,3.0,5.0,63,0.00,,,0.00,meteohub,2013-06-22 14:07:00,
2013-06-22 10:12:00,90.3,75.9,30.13,NW,315,2.0,4.0,63,0.00,,,0.00,meteohub,2013-06-22 14:12:00,
2013-06-22 10:17:00,91.4,76.5,30.13,NE,45,3.0,5.0,62,0.00,,,0.00,meteohub,2013-06-22 14:17:00,
2013-06-22 10:22:00,91.6,75.2,30.13,North,0,2.0,5.0,59,0.00,,,0.00,meteohub,2013-06-22 14:22:00,
2013-06-22 10:27:00,92.1,76.6,30.13,North,0,2.0,4.0,61,0.00,,,0.00,meteohub,2013-06-22 14:27:00,
2013-06-22 10:32:00,92.1,75.2,30.13,North,0,4.0,4.0,58,0.00,,,0.00,meteohub,2013-06-22 14:32:00,
2013-06-22 10:37:00,91.2,75.9,30.13,North,0,4.0,5.0,61,0.00,,,0.00,meteohub,2013-06-22 14:37:00,
2013-06-22 10:42:00,92.3,75.9,30.13,North,0,3.0,5.0,59,0.00,,,0.00,meteohub,2013-06-22 14:42:00,
2013-06-22 10:47:00,93.2,75.2,30.14,North,0,2.0,5.0,56,0.00,,,0.00,meteohub,2013-06-22 14:47:00,
2013-06-22 10:52:00,93.4,74.3,30.13,ENE,68,2.0,5.0,54,0.00,,,0.00,meteohub,2013-06-22 14:52:00,
2013-06-22 10:57:00,93.2,73.6,30.13,North,0,4.0,5.0,53,0.00,,,0.00,meteohub,2013-06-22 14:57:00,
2013-06-22 11:02:00,93.2,74.7,30.13,ENE,68,2.0,5.0,55,0.00,,,0.00,meteohub,2013-06-22 15:02:00,
2013-06-22 11:07:00,94.1,74.8,30.14,North,0,2.0,5.0,54,0.00,,,0.00,meteohub,2013-06-22 15:07:00,
2013-06-22 11:12:00,93.2,72.3,30.14,NE,45,3.0,5.0,51,0.00,,,0.00,meteohub,2013-06-22 15:12:00,
2013-06-22 11:17:00,93.6,73.8,30.14,NE,45,2.0,8.0,53,0.00,,,0.00,meteohub,2013-06-22 15:17:00,
2013-06-22 11:22:00,94.3,73.9,30.14,West,270,4.0,8.0,52,0.00,,,0.00,meteohub,2013-06-22 15:22:00,
2013-06-22 11:27:00,94.6,73.8,30.14,North,0,1.0,8.0,51,0.00,,,0.00,meteohub,2013-06-22 15:27:00,
2013-06-22 11:32:00,95.7,73.6,30.14,West,270,2.0,7.0,49,0.00,,,0.00,meteohub,2013-06-22 15:32:00,
2013-06-22 11:37:00,96.6,73.0,30.14,NNW,338,4.0,5.0,47,0.00,,,0.00,meteohub,2013-06-22 15:37:00,
2013-06-22 11:43:00,96.1,72.5,30.14,North,0,4.0,7.0,47,0.00,,,0.00,meteohub,2013-06-22 15:43:00,
2013-06-22 11:48:00,96.3,73.4,30.14,NW,315,2.0,7.0,48,0.00,,,0.00,meteohub,2013-06-22 15:48:00,
2013-06-22 11:53:00,97.2,71.6,30.14,NE,45,4.0,7.0,44,0.00,,,0.00,meteohub,2013-06-22 15:53:00,
2013-06-22 11:58:00,96.8,70.5,30.14,West,270,2.0,5.0,43,0.00,,,0.00,meteohub,2013-06-22 15:58:00,
2013-06-22 12:03:00,96.8,69.3,30.14,NW,315,4.0,5.0,41,0.00,,,0.00,meteohub,2013-06-22 16:03:00,
2013-06-22 12:08:00,95.7,70.3,30.14,NW,315,2.0,7.0,44,0.00,,,0.00,meteohub,2013-06-22 16:08:00,
2013-06-22 12:13:00,95.4,69.3,30.14,ENE,68,2.0,7.0,43,0.00,,,0.00,meteohub,2013-06-22 16:13:00,
2013-06-22 12:19:00,95.4,70.7,30.14,NW,315,2.0,7.0,45,0.00,,,0.00,meteohub,2013-06-22 16:19:00,
2013-06-22 12:24:00,96.4,70.9,30.14,North,0,8.0,8.0,44,0.00,,,0.00,meteohub,2013-06-22 16:24:00,
2013-06-22 12:29:00,96.3,69.4,30.14,NE,45,4.0,8.0,42,0.00,,,0.00,meteohub,2013-06-22 16:29:00,
2013-06-22 12:34:00,95.9,69.1,30.14,East,90,4.0,8.0,42,0.00,,,0.00,meteohub,2013-06-22 16:34:00,
2013-06-22 12:39:00,96.4,72.3,30.14,West,270,3.0,8.0,46,0.00,,,0.00,meteohub,2013-06-22 16:39:00,
2013-06-22 12:44:00,96.3,70.2,30.14,North,0,2.0,4.0,43,0.00,,,0.00,meteohub,2013-06-22 16:44:00,
2013-06-22 12:49:00,96.1,70.7,30.13,ESE,113,6.0,7.0,44,0.00,,,0.00,meteohub,2013-06-22 16:49:00,
2013-06-22 12:55:00,95.9,70.5,30.14,NNW,338,3.0,8.0,44,0.00,,,0.00,meteohub,2013-06-22 16:55:00,
2013-06-22 13:00:00,96.8,70.0,30.14,West,270,2.0,8.0,42,0.00,,,0.00,meteohub,2013-06-22 17:00:00,
2013-06-22 13:05:00,97.3,70.3,30.13,NE,45,2.0,7.0,42,0.00,,,0.00,meteohub,2013-06-22 17:05:00,
2013-06-22 13:10:00,97.0,70.2,30.13,North,0,2.0,5.0,42,0.00,,,0.00,meteohub,2013-06-22 17:10:00,
2013-06-22 13:15:00,97.5,68.4,30.13,NW,315,2.0,5.0,39,0.00,,,0.00,meteohub,2013-06-22 17:15:00,
2013-06-22 13:20:00,97.0,68.7,30.13,NW,315,3.0,6.0,40,0.00,,,0.00,meteohub,2013-06-22 17:20:00,
2013-06-22 13:25:00,97.0,65.7,30.13,ENE,68,2.0,6.0,36,0.00,,,0.00,meteohub,2013-06-22 17:25:00,
2013-06-22 13:30:00,97.7,67.1,30.13,ENE,68,3.0,5.0,37,0.00,,,0.00,meteohub,2013-06-22 17:30:00,
2013-06-22 13:36:00,97.5,68.4,30.12,North,0,4.0,5.0,39,0.00,,,0.00,meteohub,2013-06-22 17:36:00,
2013-06-22 13:41:00,98.6,65.3,30.12,North,0,3.0,5.0,34,0.00,,,0.00,meteohub,2013-06-22 17:41:00,
2013-06-22 13:46:00,99.3,65.1,30.12,North,0,3.0,6.0,33,0.00,,,0.00,meteohub,2013-06-22 17:46:00,
2013-06-22 13:51:00,99.1,63.1,30.12,NW,315,2.0,6.0,31,0.00,,,0.00,meteohub,2013-06-22 17:51:00,
2013-06-22 13:56:00,99.5,61.5,30.12,NE,45,3.0,6.0,29,0.00,,,0.00,meteohub,2013-06-22 17:56:00,
2013-06-22 14:01:00,98.1,64.0,30.12,NW,315,2.0,4.0,33,0.00,,,0.00,meteohub,2013-06-22 18:01:00,
2013-06-22 14:06:00,98.1,64.0,30.12,NW,315,2.0,4.0,33,0.00,,,0.00,meteohub,2013-06-22 18:06:00,
2013-06-22 14:11:00,98.6,63.7,30.12,West,270,3.0,3.0,32,0.00,,,0.00,meteohub,2013-06-22 18:11:00,
2013-06-22 14:17:00,99.3,55.0,30.11,South,180,2.0,5.0,23,0.00,,,0.00,meteohub,2013-06-22 18:17:00,
2013-06-22 14:22:00,100.4,67.8,30.11,West,270,5.0,5.0,35,0.00,,,0.00,meteohub,2013-06-22 18:22:00,
2013-06-22 14:27:00,100.4,44.4,30.11,NNE,23,5.0,8.0,15,0.00,,,0.00,meteohub,2013-06-22 18:27:00,
2013-06-22 14:34:00,100.8,44.6,30.11,NW,315,1.0,8.0,15,0.00,,,0.00,meteohub,2013-06-22 18:34:00,
2013-06-22 14:39:00,99.7,35.8,30.10,WNW,293,4.0,8.0,11,0.00,,,0.00,meteohub,2013-06-22 18:39:00,
2013-06-22 14:44:00,99.5,35.8,30.10,NW,315,2.0,5.0,11,0.00,,,0.00,meteohub,2013-06-22 18:44:00,
2013-06-22 14:49:00,101.3,45.1,30.10,NW,315,5.0,8.0,15,0.00,,,0.00,meteohub,2013-06-22 18:49:00,
2013-06-22 14:55:00,99.7,35.8,30.10,North,0,2.0,8.0,11,0.00,,,0.00,meteohub,2013-06-22 18:55:00,
2013-06-22 15:00:00,98.6,35.1,30.09,NW,315,6.0,8.0,11,0.00,,,0.00,meteohub,2013-06-22 19:00:00,
2013-06-22 15:05:00,99.7,35.8,30.09,NW,315,1.0,5.0,11,0.00,,,0.00,meteohub,2013-06-22 19:05:00,
2013-06-22 15:10:00,101.1,45.0,30.09,NW,315,3.0,8.0,15,0.00,,,0.00,meteohub,2013-06-22 19:10:00,
2013-06-22 15:15:00,101.3,45.1,30.09,NE,45,6.0,8.0,15,0.00,,,0.00,meteohub,2013-06-22 19:15:00,
2013-06-22 15:20:00,100.9,44.8,30.09,East,90,2.0,6.0,15,0.00,,,0.00,meteohub,2013-06-22 19:20:00,
2013-06-22 15:26:00,100.9,44.8,30.09,South,180,2.0,7.0,15,0.00,,,0.00,meteohub,2013-06-22 19:26:00,
2013-06-22 15:31:00,102.7,44.4,30.09,SW,225,3.0,7.0,14,0.00,,,0.00,meteohub,2013-06-22 19:31:00,
2013-06-22 15:36:00,103.5,45.0,30.08,North,0,2.0,7.0,14,0.00,,,0.00,meteohub,2013-06-22 19:36:00,
2013-06-22 15:41:00,102.0,45.7,30.09,NW,315,4.0,5.0,15,0.00,,,0.00,meteohub,2013-06-22 19:41:00,
2013-06-22 15:46:00,101.3,45.1,30.09,SW,225,2.0,7.0,15,0.00,,,0.00,meteohub,2013-06-22 19:46:00,
2013-06-22 15:51:00,103.3,44.8,30.08,NNE,23,2.0,7.0,14,0.00,,,0.00,meteohub,2013-06-22 19:51:00,
2013-06-22 15:56:00,103.3,44.8,30.08,North,0,2.0,7.0,14,0.00,,,0.00,meteohub,2013-06-22 19:56:00,
2013-06-22 16:02:00,103.8,45.3,30.08,North,0,3.0,4.0,14,0.00,,,0.00,meteohub,2013-06-22 20:02:00,
2013-06-22 16:07:00,100.4,44.4,30.07,NW,315,4.0,4.0,15,0.00,,,0.00,meteohub,2013-06-22 20:07:00,
2013-06-22 16:12:00,98.6,35.1,30.08,West,270,3.0,4.0,11,0.00,,,0.00,meteohub,2013-06-22 20:12:00,
2013-06-22 16:17:00,100.0,36.1,30.07,NW,315,2.0,4.0,11,0.00,,,0.00,meteohub,2013-06-22 20:17:00,
2013-06-22 16:22:00,101.1,45.0,30.07,East,90,2.0,4.0,15,0.00,,,0.00,meteohub,2013-06-22 20:22:00,
2013-06-22 16:27:00,103.8,45.3,30.07,West,270,1.0,4.0,14,0.00,,,0.00,meteohub,2013-06-22 20:27:00,
2013-06-22 16:32:00,103.6,45.1,30.06,NW,315,2.0,4.0,14,0.00,,,0.00,meteohub,2013-06-22 20:32:00,
2013-06-22 16:37:00,102.2,44.1,30.07,NW,315,5.0,5.0,14,0.00,,,0.00,meteohub,2013-06-22 20:37:00,
2013-06-22 16:42:00,101.3,45.1,30.06,WNW,293,2.0,7.0,15,0.00,,,0.00,meteohub,2013-06-22 20:42:00,
2013-06-22 16:47:00,101.3,45.1,30.06,SW,225,1.0,7.0,15,0.00,,,0.00,meteohub,2013-06-22 20:47:00,
2013-06-22 16:53:00,103.1,44.6,30.06,North,0,4.0,7.0,14,0.00,,,0.00,meteohub,2013-06-22 20:53:00,
2013-06-22 16:58:00,103.6,45.1,30.06,NW,315,6.0,6.0,14,0.00,,,0.00,meteohub,2013-06-22 20:58:00,
2013-06-22 17:03:00,100.2,36.3,30.06,West,270,2.0,4.0,11,0.00,,,0.00,meteohub,2013-06-22 21:03:00,
2013-06-22 17:08:00,97.9,36.7,30.07,NW,315,1.0,6.0,12,0.00,,,0.00,meteohub,2013-06-22 21:08:00,
2013-06-22 17:13:00,97.7,36.5,30.06,NW,315,4.0,6.0,12,0.00,,,0.00,meteohub,2013-06-22 21:13:00,
2013-06-22 17:18:00,99.7,35.8,30.06,SW,225,3.0,4.0,11,0.00,,,0.00,meteohub,2013-06-22 21:18:00,
2013-06-22 17:23:00,101.3,45.1,30.06,West,270,3.0,6.0,15,0.00,,,0.00,meteohub,2013-06-22 21:23:00,
2013-06-22 17:29:00,99.7,35.8,30.06,NW,315,2.0,6.0,11,0.00,,,0.00,meteohub,2013-06-22 21:29:00,
2013-06-22 17:34:00,97.7,36.5,30.06,WSW,248,0.0,6.0,12,0.00,,,0.00,meteohub,2013-06-22 21:34:00,
2013-06-22 17:39:00,97.0,36.0,30.06,SW,225,2.0,4.0,12,0.00,,,0.00,meteohub,2013-06-22 21:39:00,
2013-06-22 17:44:00,96.6,37.8,30.06,West,270,0.0,5.0,13,0.00,,,0.00,meteohub,2013-06-22 21:44:00,
2013-06-22 17:49:00,97.2,36.1,30.06,West,270,6.0,6.0,12,0.00,,,0.00,meteohub,2013-06-22 21:49:00,
2013-06-22 17:54:00,97.5,36.3,30.06,North,0,3.0,7.0,12,0.00,,,0.00,meteohub,2013-06-22 21:54:00,
2013-06-22 18:00:00,96.3,37.4,30.05,WNW,293,1.0,7.0,13,0.00,,,0.00,meteohub,2013-06-22 22:00:00,
2013-06-22 18:05:00,96.3,37.4,30.05,WNW,293,1.0,8.0,13,0.00,,,0.00,meteohub,2013-06-22 22:05:00,
2013-06-22 18:10:00,95.9,37.2,30.05,West,270,5.0,8.0,13,0.00,,,0.00,meteohub,2013-06-22 22:10:00,
2013-06-22 18:15:00,95.7,37.0,30.05,SW,225,0.0,8.0,13,0.00,,,0.00,meteohub,2013-06-22 22:15:00,
2013-06-22 18:20:00,96.3,37.4,30.05,North,0,3.0,8.0,13,0.00,,,0.00,meteohub,2013-06-22 22:20:00,
2013-06-22 18:25:00,95.7,37.0,30.05,North,0,2.0,4.0,13,0.00,,,0.00,meteohub,2013-06-22 22:25:00,
2013-06-22 18:30:00,95.2,36.7,30.05,North,0,7.0,7.0,13,0.00,,,0.00,meteohub,2013-06-22 22:30:00,
2013-06-22 18:36:00,94.5,37.9,30.05,NW,315,2.0,7.0,14,0.00,,,0.00,meteohub,2013-06-22 22:36:00,
2013-06-22 18:41:00,93.9,37.6,30.05,NNW,338,6.0,7.0,14,0.00,,,0.00,meteohub,2013-06-22 22:41:00,
2013-06-22 18:46:00,93.6,37.2,30.06,North,0,3.0,8.0,14,0.00,,,0.00,meteohub,2013-06-22 22:46:00,
2013-06-22 18:51:00,93.2,36.9,30.05,NE,45,4.0,8.0,14,0.00,,,0.00,meteohub,2013-06-22 22:51:00,
2013-06-22 18:56:00,93.0,38.5,30.05,NE,45,3.0,8.0,15,0.00,,,0.00,meteohub,2013-06-22 22:56:00,
2013-06-22 19:01:00,91.9,70.0,30.05,NNE,23,5.0,5.0,49,0.00,,,0.00,meteohub,2013-06-22 23:01:00,
2013-06-22 19:07:00,91.2,70.5,30.05,SE,135,2.0,9.0,51,0.00,,,0.00,meteohub,2013-06-22 23:07:00,
2013-06-22 19:12:00,90.7,71.8,30.05,East,90,6.0,9.0,54,0.00,,,0.00,meteohub,2013-06-22 23:12:00,
2013-06-22 19:17:00,90.0,72.1,30.06,NE,45,4.0,9.0,56,0.00,,,0.00,meteohub,2013-06-22 23:17:00,
2013-06-22 19:22:00,89.8,73.0,30.06,ENE,68,5.0,6.0,58,0.00,,,0.00,meteohub,2013-06-22 23:22:00,
2013-06-22 19:27:00,89.6,72.9,30.06,NE,45,3.0,6.0,58,0.00,,,0.00,meteohub,2013-06-22 23:27:00,
2013-06-22 19:32:00,88.7,73.0,30.06,NE,45,2.0,5.0,60,0.00,,,0.00,meteohub,2013-06-22 23:32:00,
2013-06-22 19:37:00,88.2,73.4,30.06,NE,45,2.0,5.0,62,0.00,,,0.00,meteohub,2013-06-22 23:37:00,
2013-06-22 19:42:00,87.8,73.6,30.07,ENE,68,4.0,5.0,63,0.00,,,0.00,meteohub,2013-06-22 23:42:00,
2013-06-22 19:47:00,87.6,73.9,30.07,NE,45,2.0,4.0,64,0.00,,,0.00,meteohub,2013-06-22 23:47:00,
2013-06-22 19:52:00,87.4,74.3,30.08,ESE,113,2.0,4.0,65,0.00,,,0.00,meteohub,2013-06-22 23:52:00,
2013-06-22 19:57:00,87.1,73.9,30.08,South,180,3.0,4.0,65,0.00,,,0.00,meteohub,2013-06-22 23:57:00,
2013-06-22 20:02:00,86.2,72.1,30.08,SE,135,9.0,9.0,63,0.00,,,0.00,meteohub,2013-06-23 00:02:00,
2013-06-22 20:07:00,84.6,72.9,30.09,South,180,5.0,10.0,68,0.00,,,0.00,meteohub,2013-06-23 00:07:00,
2013-06-22 20:12:00,84.0,73.2,30.09,SE,135,3.0,10.0,70,0.00,,,0.00,meteohub,2013-06-23 00:12:00,
2013-06-22 20:17:00,83.8,73.0,30.09,SE,135,2.0,10.0,70,0.00,,,0.00,meteohub,2013-06-23 00:17:00,
2013-06-22 20:22:00,83.5,73.6,30.09,South,180,8.0,8.0,72,0.00,,,0.00,meteohub,2013-06-23 00:22:00,
2013-06-22 20:27:00,83.1,73.9,30.09,SE,135,2.0,8.0,74,0.00,,,0.00,meteohub,2013-06-23 00:27:00,
2013-06-22 20:32:00,82.8,74.5,30.10,East,90,3.0,8.0,76,0.00,,,0.00,meteohub,2013-06-23 00:32:00,
2013-06-22 20:38:00,82.2,74.7,30.10,SE,135,0.0,8.0,78,0.00,,,0.00,meteohub,2013-06-23 00:38:00,
2013-06-22 20:43:00,82.0,74.5,30.09,South,180,2.0,6.0,78,0.00,,,0.00,meteohub,2013-06-23 00:43:00,
2013-06-22 20:48:00,82.2,75.0,30.09,East,90,2.0,3.0,79,0.00,,,0.00,meteohub,2013-06-23 00:48:00,
2013-06-22 20:54:00,82.0,74.8,30.09,SE,135,0.0,2.0,79,0.00,,,0.00,meteohub,2013-06-23 00:54:00,
2013-06-22 20:59:00,82.0,75.6,30.09,South,180,3.0,3.0,81,0.00,,,0.00,meteohub,2013-06-23 00:59:00,
2013-06-22 21:04:00,82.0,75.6,30.09,South,180,0.0,3.0,81,0.00,,,0.00,meteohub,2013-06-23 01:04:00,
2013-06-22 21:10:00,81.7,75.6,30.09,SE,135,1.0,3.0,82,0.00,,,0.00,meteohub,2013-06-23 01:10:00,
2013-06-22 21:15:00,81.5,75.4,30.09,East,90,1.0,3.0,82,0.00,,,0.00,meteohub,2013-06-23 01:15:00,
2013-06-22 21:20:00,81.5,75.4,30.09,SE,135,2.0,2.0,82,0.00,,,0.00,meteohub,2013-06-23 01:20:00,
2013-06-22 21:25:00,81.5,75.4,30.09,East,90,1.0,2.0,82,0.00,,,0.00,meteohub,2013-06-23 01:25:00,
2013-06-22 21:30:00,81.3,75.7,30.10,South,180,0.0,2.0,83,0.00,,,0.00,meteohub,2013-06-23 01:30:00,
2013-06-22 21:36:00,81.1,75.9,30.10,NW,315,0.0,2.0,84,0.00,,,0.00,meteohub,2013-06-23 01:36:00,
2013-06-22 21:44:00,81.1,76.3,30.10,East,90,2.0,2.0,85,0.00,,,0.00,meteohub,2013-06-23 01:44:00,
2013-06-22 21:49:00,81.1,76.3,30.10,SE,135,0.0,2.0,85,0.00,,,0.00,meteohub,2013-06-23 01:49:00,
2013-06-22 21:55:00,81.1,75.9,30.10,South,180,0.0,2.0,84,0.00,,,0.00,meteohub,2013-06-23 01:55:00,
2013-06-22 22:00:00,81.0,75.7,30.10,South,180,0.0,2.0,84,0.00,,,0.00,meteohub,2013-06-23 02:00:00,
2013-06-22 22:06:00,80.6,75.4,30.10,South,180,0.0,0.0,84,0.00,,,0.00,meteohub,2013-06-23 02:06:00,
2013-06-22 22:11:00,80.4,75.9,30.11,South,180,0.0,0.0,86,0.00,,,0.00,meteohub,2013-06-23 02:11:00,
2013-06-22 22:17:00,80.2,76.1,30.11,South,180,0.0,0.0,87,0.00,,,0.00,meteohub,2013-06-23 02:17:00,
2013-06-22 22:22:00,80.2,76.1,30.11,WNW,293,0.0,0.0,87,0.00,,,0.00,meteohub,2013-06-23 02:22:00,
2013-06-22 22:27:00,80.2,75.7,30.12,WNW,293,0.0,0.0,86,0.00,,,0.00,meteohub,2013-06-23 02:27:00,
2013-06-22 22:32:00,80.2,75.7,30.11,WNW,293,0.0,0.0,86,0.00,,,0.00,meteohub,2013-06-23 02:32:00,
2013-06-22 22:37:00,80.2,76.1,30.12,East,90,0.0,0.0,87,0.00,,,0.00,meteohub,2013-06-23 02:37:00,
2013-06-22 22:42:00,80.2,76.1,30.12,West,270,0.0,0.0,87,0.00,,,0.00,meteohub,2013-06-23 02:42:00,
2013-06-22 22:47:00,80.4,75.9,30.12,NW,315,0.0,0.0,86,0.00,,,0.00,meteohub,2013-06-23 02:47:00,
2013-06-22 22:52:00,80.6,75.7,30.12,North,0,2.0,3.0,85,0.00,,,0.00,meteohub,2013-06-23 02:52:00,
2013-06-22 22:57:00,81.1,75.9,30.12,North,0,3.0,3.0,84,0.00,,,0.00,meteohub,2013-06-23 02:57:00,
2013-06-22 23:02:00,81.5,75.9,30.12,North,0,0.0,3.0,83,0.00,,,0.00,meteohub,2013-06-23 03:02:00,
2013-06-22 23:07:00,81.9,75.7,30.13,NE,45,1.0,3.0,82,0.00,,,0.00,meteohub,2013-06-23 03:07:00,
2013-06-22 23:12:00,82.2,75.7,30.13,NE,45,4.0,4.0,81,0.00,,,0.00,meteohub,2013-06-23 03:12:00,
2013-06-22 23:17:00,82.6,75.7,30.13,NNE,23,4.0,7.0,80,0.00,,,0.00,meteohub,2013-06-23 03:17:00,
2013-06-22 23:22:00,82.6,75.7,30.13,North,0,2.0,7.0,80,0.00,,,0.00,meteohub,2013-06-23 03:22:00,
2013-06-22 23:27:00,82.4,75.9,30.13,NW,315,3.0,7.0,81,0.00,,,0.00,meteohub,2013-06-23 03:27:00,
2013-06-22 23:32:00,82.2,76.1,30.13,NW,315,2.0,4.0,82,0.00,,,0.00,meteohub,2013-06-23 03:32:00,
2013-06-22 23:37:00,82.0,75.9,30.13,NNE,23,4.0,4.0,82,0.00,,,0.00,meteohub,2013-06-23 03:37:00,
2013-06-22 23:42:00,81.9,76.1,30.13,North,0,2.0,5.0,83,0.00,,,0.00,meteohub,2013-06-23 03:42:00,
2013-06-22 23:47:00,81.7,75.9,30.13,North,0,4.0,5.0,83,0.00,,,0.00,meteohub,2013-06-23 03:47:00,
2013-06-22 23:52:00,81.5,75.9,30.13,North,0,2.0,5.0,83,0.00,,,0.00,meteohub,2013-06-23 03:52:00,
2013-06-22 23:57:00,81.3,75.7,30.13,NE,45,3.0,6.0,83,0.00,,,0.00,meteohub,2013-06-23 03:57:00,